createdAt,value
2019-01-23T00:02:02.700Z,68.30
2019-01-23T00:05:06.915Z,68.40
2019-01-23T00:08:11.144Z,68.30
2019-01-23T00:11:15.243Z,68.30
2019-01-23T00:14:19.376Z,68.30
2019-01-23T00:17:23.493Z,68.30
2019-01-23T00:20:27.640Z,68.50
2019-01-23T00:23:31.833Z,68.40
2019-01-23T00:26:36.168Z,68.50
2019-01-23T00:29:40.360Z,68.50
2019-01-23T00:32:44.657Z,68.60
2019-01-23T00:35:48.972Z,68.90
2019-01-23T00:38:53.187Z,68.90
2019-01-23T00:41:57.296Z,69.00
2019-01-23T00:45:01.436Z,69.00
2019-01-23T00:48:05.637Z,68.80
2019-01-23T00:51:09.920Z,69.00
2019-01-23T00:54:14.348Z,69.10
2019-01-23T00:57:18.509Z,69.10
2019-01-23T01:00:24.462Z,69.10
2019-01-23T01:03:28.645Z,70.00
2019-01-23T01:06:32.747Z,69.10
2019-01-23T01:09:36.884Z,69.30
2019-01-23T01:12:40.979Z,69.40
2019-01-23T01:15:45.123Z,69.60
2019-01-23T01:18:49.302Z,69.70
2019-01-23T01:21:53.503Z,69.70
2019-01-23T01:24:57.599Z,69.60
2019-01-23T01:28:01.805Z,69.80
2019-01-23T01:31:05.994Z,69.70
2019-01-23T01:34:10.214Z,70.10
2019-01-23T01:37:14.315Z,70.30
2019-01-23T01:40:18.686Z,70.50
2019-01-23T01:43:22.793Z,70.50
2019-01-23T01:46:27.006Z,70.40
2019-01-23T01:49:31.179Z,70.20
2019-01-23T01:52:35.303Z,70.10
2019-01-23T01:55:39.468Z,69.90
2019-01-23T01:58:43.590Z,69.90
2019-01-23T02:01:47.711Z,69.90
2019-01-23T02:04:51.864Z,70.00
2019-01-23T02:07:56.045Z,69.70
2019-01-23T02:11:00.247Z,69.70
2019-01-23T02:14:04.350Z,69.70
2019-01-23T02:17:08.474Z,69.80
2019-01-23T02:20:16.052Z,69.90
2019-01-23T02:23:20.170Z,69.90
2019-01-23T02:26:24.261Z,69.90
2019-01-23T02:29:28.456Z,70.10
2019-01-23T02:32:32.594Z,69.90
2019-01-23T02:35:36.742Z,70.20
2019-01-23T02:38:40.908Z,70.20
2019-01-23T02:41:45.061Z,70.00
2019-01-23T02:44:49.223Z,70.00
2019-01-23T02:47:53.367Z,69.90
2019-01-23T02:50:57.476Z,69.90
2019-01-23T02:54:01.606Z,69.90
2019-01-23T02:57:05.781Z,69.70
2019-01-23T03:00:12.303Z,69.90
2019-01-23T03:03:16.530Z,70.00
2019-01-23T03:06:20.836Z,69.90
2019-01-23T03:09:25.109Z,70.10
2019-01-23T03:12:29.304Z,70.10
2019-01-23T03:15:33.416Z,70.30
2019-01-23T03:18:37.639Z,70.20
2019-01-23T03:21:41.861Z,70.20
2019-01-23T03:24:46.071Z,70.00
2019-01-23T03:27:50.165Z,69.90
2019-01-23T03:30:54.297Z,69.90
2019-01-23T03:33:58.480Z,70.00
2019-01-23T03:37:02.705Z,70.10
2019-01-23T03:40:10.782Z,70.20
2019-01-23T03:43:15.018Z,70.10
2019-01-23T03:46:19.195Z,70.20
2019-01-23T03:49:23.402Z,70.20
2019-01-23T03:52:27.513Z,70.50
2019-01-23T03:55:31.641Z,70.20
2019-01-23T03:58:35.736Z,69.90
2019-01-23T04:01:39.951Z,69.70
2019-01-23T04:04:44.194Z,69.60
2019-01-23T04:07:48.412Z,69.60
2019-01-23T04:10:52.580Z,69.70
2019-01-23T04:13:56.727Z,69.60
2019-01-23T04:17:01.048Z,69.70
2019-01-23T04:20:07.949Z,69.70
2019-01-23T04:23:12.114Z,69.60
2019-01-23T04:26:16.316Z,69.80
2019-01-23T04:29:20.482Z,69.70
2019-01-23T04:32:24.690Z,69.80
2019-01-23T04:35:28.874Z,70.60
2019-01-23T04:38:33.021Z,69.90
2019-01-23T04:41:37.177Z,69.90
2019-01-23T04:44:41.316Z,70.00
2019-01-23T04:47:45.433Z,70.00
2019-01-23T04:51:07.557Z,70.20
2019-01-23T04:54:16.677Z,70.00
2019-01-23T04:57:20.860Z,69.90
2019-01-23T05:00:26.309Z,69.70
2019-01-23T05:03:30.443Z,69.70
2019-01-23T05:06:34.623Z,69.80
2019-01-23T05:09:38.832Z,69.70
2019-01-23T05:12:43.080Z,70.00
2019-01-23T05:15:47.222Z,70.00
2019-01-23T05:18:51.317Z,70.00
2019-01-23T05:21:55.579Z,70.10
2019-01-23T05:24:59.768Z,70.10
2019-01-23T05:28:03.886Z,70.30
2019-01-23T05:31:07.979Z,70.30
2019-01-23T05:34:12.192Z,70.40
2019-01-23T05:37:16.577Z,70.70
2019-01-23T05:40:20.712Z,70.70
2019-01-23T05:43:24.819Z,70.70
2019-01-23T05:46:28.959Z,70.70
2019-01-23T05:49:33.135Z,70.80
2019-01-23T05:52:37.342Z,70.90
2019-01-23T05:55:41.511Z,70.90
2019-01-23T05:58:45.633Z,71.00
2019-01-23T06:01:49.811Z,71.00
2019-01-23T06:04:53.929Z,70.90
2019-01-23T06:07:58.210Z,70.90
2019-01-23T06:11:02.327Z,71.00
2019-01-23T06:14:06.503Z,71.10
2019-01-23T06:17:10.709Z,71.20
2019-01-23T06:20:16.555Z,71.10
2019-01-23T06:23:20.767Z,71.10
2019-01-23T06:26:24.880Z,71.10
2019-01-23T06:29:29.071Z,71.20
2019-01-23T06:32:33.437Z,71.30
2019-01-23T06:35:37.647Z,71.20
2019-01-23T06:38:41.859Z,71.40
2019-01-23T06:41:46.031Z,71.20
2019-01-23T06:44:50.148Z,71.30
2019-01-23T06:47:54.278Z,71.40
2019-01-23T06:50:58.372Z,71.50
2019-01-23T06:54:02.583Z,71.70
2019-01-23T06:57:06.673Z,71.60
2019-01-23T07:00:17.188Z,71.60
2019-01-23T07:03:21.577Z,71.60
2019-01-23T07:06:25.717Z,71.50
2019-01-23T07:09:31.614Z,71.30
2019-01-23T07:12:35.852Z,71.40
2019-01-23T07:15:39.971Z,71.10
2019-01-23T07:18:44.132Z,71.30
2019-01-23T07:21:48.244Z,71.20
2019-01-23T07:24:52.473Z,71.00
2019-01-23T07:27:56.700Z,70.90
2019-01-23T07:31:00.826Z,71.00
2019-01-23T07:34:05.012Z,71.00
2019-01-23T07:37:09.213Z,70.90
2019-01-23T07:40:13.616Z,70.90
2019-01-23T07:43:17.859Z,70.90
2019-01-23T07:46:21.956Z,70.90
2019-01-23T07:49:26.132Z,71.00
2019-01-23T07:52:30.420Z,71.20
2019-01-23T07:55:34.667Z,71.20
2019-01-23T07:58:38.887Z,71.10
2019-01-23T08:01:43.145Z,72.10
2019-01-23T08:04:47.370Z,71.00
2019-01-23T08:07:51.600Z,71.00
2019-01-23T08:10:55.765Z,71.00
2019-01-23T08:14:00.053Z,70.90
2019-01-23T08:17:04.357Z,71.20
2019-01-23T08:20:11.858Z,71.00
2019-01-23T08:23:16.106Z,70.90
2019-01-23T08:26:20.323Z,70.80
2019-01-23T08:29:24.531Z,70.80
2019-01-23T08:32:28.737Z,70.80
2019-01-23T08:35:33.528Z,70.80
2019-01-23T08:38:37.752Z,70.90
2019-01-23T08:41:41.866Z,70.80
2019-01-23T08:44:46.073Z,70.60
2019-01-23T08:47:50.250Z,70.60
2019-01-23T08:50:56.636Z,70.40
2019-01-23T08:54:00.347Z,70.20
2019-01-23T08:57:04.563Z,70.10
2019-01-23T09:00:09.028Z,70.20
2019-01-23T09:03:13.238Z,70.00
2019-01-23T09:06:17.584Z,69.90
2019-01-23T09:09:21.788Z,69.80
2019-01-23T09:12:25.973Z,69.80
2019-01-23T09:15:30.202Z,69.70
2019-01-23T09:18:34.620Z,69.80
2019-01-23T09:21:38.829Z,70.50
2019-01-23T09:24:43.210Z,69.80
2019-01-23T09:27:47.739Z,69.80
2019-01-23T09:31:31.838Z,69.80
2019-01-23T09:35:20.290Z,69.80
2019-01-23T09:38:39.185Z,69.80
2019-01-23T09:42:26.593Z,69.80
2019-01-23T09:46:17.131Z,69.80
2019-01-23T09:50:12.423Z,69.80
2019-01-23T09:53:33.597Z,69.80
2019-01-23T09:56:39.857Z,69.80
2019-01-23T09:59:44.095Z,69.80
2019-01-23T10:02:48.290Z,69.80
2019-01-23T10:05:52.522Z,69.70
2019-01-23T10:08:56.947Z,69.60
2019-01-23T10:12:01.145Z,69.60
2019-01-23T10:15:08.548Z,69.50
2019-01-23T10:18:12.761Z,69.50
2019-01-23T10:21:16.997Z,69.50
2019-01-23T10:24:21.286Z,69.60
2019-01-23T10:27:25.511Z,69.60
2019-01-23T10:30:29.762Z,69.40
2019-01-23T10:33:34.140Z,69.30
2019-01-23T10:36:39.553Z,69.30
2019-01-23T10:39:43.921Z,69.20
2019-01-23T10:42:48.135Z,69.20
2019-01-23T10:45:52.734Z,69.20
2019-01-23T10:48:58.432Z,68.90
2019-01-23T10:52:02.931Z,69.00
2019-01-23T10:55:07.445Z,68.80
2019-01-23T10:58:11.813Z,68.70
2019-01-23T11:01:16.320Z,68.60
2019-01-23T11:04:20.823Z,68.60
2019-01-23T11:07:25.046Z,68.60
2019-01-23T11:10:29.327Z,68.50
2019-01-23T11:13:33.526Z,68.30
2019-01-23T11:16:37.804Z,68.10
2019-01-23T11:19:42.041Z,68.10
2019-01-23T11:22:46.224Z,68.00
2019-01-23T11:25:50.462Z,67.80
2019-01-23T11:28:54.730Z,67.70
2019-01-23T11:31:58.916Z,67.60
2019-01-23T11:35:03.235Z,67.60
2019-01-23T11:38:07.414Z,67.50
2019-01-23T11:41:11.648Z,67.20
2019-01-23T11:44:15.841Z,67.30
2019-01-23T11:47:20.055Z,67.20
2019-01-23T11:50:24.232Z,67.10
2019-01-23T11:53:28.442Z,66.90
2019-01-23T11:56:32.633Z,67.00
2019-01-23T11:59:36.820Z,66.90
2019-01-23T12:02:41.104Z,66.70
2019-01-23T12:05:45.298Z,66.60
2019-01-23T12:08:49.523Z,66.60
2019-01-23T12:11:53.760Z,66.60
2019-01-23T12:14:59.111Z,66.40
2019-01-23T12:18:03.324Z,66.20
2019-01-23T12:21:10.421Z,66.10
2019-01-23T12:24:14.635Z,65.90
2019-01-23T12:27:18.773Z,65.70
2019-01-23T12:30:28.336Z,65.40
2019-01-23T12:33:32.533Z,65.60
2019-01-23T12:36:36.789Z,65.50
2019-01-23T12:39:40.913Z,65.40
2019-01-23T12:42:45.290Z,65.40
2019-01-23T12:45:49.484Z,65.30
2019-01-23T12:48:54.804Z,65.70
2019-01-23T12:51:58.977Z,65.00
2019-01-23T12:55:03.307Z,65.00
2019-01-23T12:58:07.491Z,65.00
2019-01-23T13:01:11.714Z,64.90
2019-01-23T13:04:15.924Z,64.70
2019-01-23T13:07:20.149Z,64.80
2019-01-23T13:10:24.338Z,64.90
2019-01-23T13:13:28.568Z,64.70
2019-01-23T13:16:33.212Z,64.60
2019-01-23T13:19:37.978Z,64.50
2019-01-23T13:22:42.183Z,64.50
2019-01-23T13:25:46.420Z,64.60
2019-01-23T13:28:50.715Z,64.60
2019-01-23T13:31:55.458Z,64.70
2019-01-23T13:35:01.161Z,64.70
2019-01-23T13:38:07.473Z,64.80
2019-01-23T13:41:11.743Z,64.60
2019-01-23T13:44:15.974Z,64.60
2019-01-23T13:47:20.149Z,65.30
2019-01-23T13:50:24.337Z,64.70
2019-01-23T13:53:29.428Z,64.70
2019-01-23T13:56:33.668Z,64.70
2019-01-23T13:59:38.793Z,64.60
2019-01-23T14:02:43.016Z,64.60
2019-01-23T14:05:47.161Z,64.70
2019-01-23T14:08:51.382Z,64.60
2019-01-23T14:11:55.581Z,64.70
2019-01-23T14:14:59.755Z,64.10
2019-01-23T14:18:04.090Z,64.50
2019-01-23T14:21:08.250Z,64.50
2019-01-23T14:24:12.432Z,64.60
2019-01-23T14:27:16.680Z,64.50
2019-01-23T14:30:31.936Z,64.60
2019-01-23T14:33:36.213Z,64.60
2019-01-23T14:36:40.581Z,64.60
2019-01-23T14:39:44.803Z,64.40
2019-01-23T14:42:48.992Z,64.40
2019-01-23T14:45:53.336Z,64.40
2019-01-23T14:48:57.545Z,64.60
2019-01-23T14:52:01.753Z,64.90
2019-01-23T14:55:06.939Z,65.00
2019-01-23T14:58:11.441Z,65.20
2019-01-23T15:01:15.811Z,65.20
2019-01-23T15:04:20.124Z,65.30
2019-01-23T15:07:25.170Z,65.20
2019-01-23T15:10:30.788Z,65.20
2019-01-23T15:13:35.405Z,65.10
2019-01-23T15:16:39.846Z,65.10
2019-01-23T15:19:44.071Z,65.10
2019-01-23T15:22:48.513Z,65.20
2019-01-23T15:25:52.757Z,65.20
2019-01-23T15:28:57.011Z,65.20
2019-01-23T15:32:01.198Z,65.10
2019-01-23T15:35:06.002Z,65.10
2019-01-23T15:38:10.197Z,65.00
2019-01-23T15:41:14.368Z,65.00
2019-01-23T15:44:18.513Z,65.00
2019-01-23T15:47:22.797Z,65.10
2019-01-23T15:50:26.975Z,65.10
2019-01-23T15:53:31.246Z,65.20
2019-01-23T15:56:35.573Z,65.20
2019-01-23T15:59:39.885Z,65.20
2019-01-23T16:02:44.272Z,65.20
2019-01-23T16:05:48.424Z,65.20
2019-01-23T16:08:52.561Z,65.20
2019-01-23T16:11:56.809Z,66.00
2019-01-23T16:15:01.243Z,65.20
2019-01-23T16:18:05.557Z,65.20
2019-01-23T16:21:09.853Z,65.00
2019-01-23T16:24:14.138Z,65.20
2019-01-23T16:27:18.701Z,65.00
2019-01-23T16:30:28.624Z,65.00
2019-01-23T16:33:32.850Z,65.00
2019-01-23T16:36:37.109Z,65.00
2019-01-23T16:39:41.719Z,65.00
2019-01-23T16:42:46.043Z,65.00
2019-01-23T16:45:50.377Z,64.80
2019-01-23T16:48:54.772Z,64.70
2019-01-23T16:51:59.102Z,64.90
2019-01-23T16:55:03.485Z,65.00
2019-01-23T16:58:08.014Z,65.00
2019-01-23T17:01:12.259Z,65.00
2019-01-23T17:04:16.401Z,65.10
2019-01-23T17:07:20.602Z,65.00
2019-01-23T17:10:25.315Z,65.10
2019-01-23T17:13:29.535Z,65.00
2019-01-23T17:16:33.833Z,64.70
2019-01-23T17:19:38.138Z,64.70
2019-01-23T17:22:42.351Z,64.70
2019-01-23T17:25:46.622Z,64.60
2019-01-23T17:28:50.747Z,64.70
2019-01-23T17:31:54.946Z,64.60
2019-01-23T17:34:59.395Z,64.60
2019-01-23T17:38:03.686Z,64.70
2019-01-23T17:41:07.885Z,64.70
2019-01-23T17:44:12.290Z,64.80
2019-01-23T17:47:16.724Z,64.80
2019-01-23T17:50:21.653Z,65.00
2019-01-23T17:53:25.894Z,64.90
2019-01-23T17:56:30.136Z,65.00
2019-01-23T17:59:34.311Z,65.20
2019-01-23T18:02:42.915Z,65.00
2019-01-23T18:05:51.100Z,65.00
2019-01-23T18:08:53.468Z,64.90
2019-01-23T18:11:57.595Z,64.90
2019-01-23T18:15:01.820Z,64.80
2019-01-23T18:18:06.553Z,64.80
2019-01-23T18:21:10.848Z,64.90
2019-01-23T18:24:15.176Z,64.90
2019-01-23T18:27:19.511Z,65.00
2019-01-23T18:30:33.543Z,64.70
2019-01-23T18:33:53.457Z,64.60
2019-01-23T18:37:18.824Z,64.50
2019-01-23T18:41:10.356Z,64.30
2019-01-23T18:44:51.876Z,64.10
2019-01-23T18:48:37.378Z,64.00
2019-01-23T18:52:12.318Z,63.90
2019-01-23T18:55:17.743Z,64.00
2019-01-23T18:58:22.137Z,64.10
2019-01-23T19:01:26.388Z,64.20
2019-01-23T19:04:30.624Z,64.30
2019-01-23T19:07:34.884Z,64.30
2019-01-23T19:10:39.002Z,64.40
2019-01-23T19:13:43.192Z,64.60
2019-01-23T19:16:47.378Z,64.60
2019-01-23T19:19:51.616Z,64.40
2019-01-23T19:22:55.807Z,64.60
2019-01-23T19:25:59.964Z,64.60
2019-01-23T19:29:04.271Z,64.60
2019-01-23T19:32:08.487Z,64.60
2019-01-23T19:35:12.735Z,64.60
2019-01-23T19:38:17.190Z,64.50
2019-01-23T19:41:21.402Z,64.60
2019-01-23T19:44:25.634Z,64.60
2019-01-23T19:47:29.846Z,64.70
2019-01-23T19:50:35.290Z,64.80
2019-01-23T19:53:40.205Z,64.90
2019-01-23T19:56:44.348Z,64.90
2019-01-23T19:59:48.465Z,64.90
2019-01-23T20:02:52.770Z,64.80
2019-01-23T20:05:58.523Z,64.90
2019-01-23T20:09:02.775Z,64.90
2019-01-23T20:12:06.977Z,64.80
2019-01-23T20:15:13.043Z,65.00
2019-01-23T20:18:17.234Z,65.00
2019-01-23T20:21:21.431Z,65.00
2019-01-23T20:24:25.630Z,65.00
2019-01-23T20:27:31.293Z,64.80
2019-01-23T20:30:39.562Z,64.50
2019-01-23T20:33:43.798Z,64.80
2019-01-23T20:36:48.049Z,64.80
2019-01-23T20:39:52.248Z,64.70
2019-01-23T20:42:56.386Z,64.80
2019-01-23T20:46:00.661Z,64.80
2019-01-23T20:49:05.683Z,64.80
2019-01-23T20:52:09.957Z,65.00
2019-01-23T20:55:14.250Z,64.90
2019-01-23T20:58:20.640Z,64.70
2019-01-23T21:01:24.881Z,64.70
2019-01-23T21:04:29.808Z,64.70
2019-01-23T21:07:34.039Z,64.60
2019-01-23T21:10:38.328Z,64.60
2019-01-23T21:13:42.559Z,65.40
2019-01-23T21:16:47.083Z,64.50
2019-01-23T21:19:51.750Z,64.60
2019-01-23T21:22:56.016Z,64.50
2019-01-23T21:26:00.187Z,64.50
2019-01-23T21:29:04.436Z,64.60
2019-01-23T21:32:08.658Z,64.60
2019-01-23T21:35:13.048Z,64.60
2019-01-23T21:38:17.249Z,64.70
2019-01-23T21:41:21.592Z,64.80
2019-01-23T21:44:25.777Z,64.80
2019-01-23T21:47:29.996Z,64.80
2019-01-23T21:50:34.215Z,64.80
2019-01-23T21:53:38.435Z,64.60
2019-01-23T21:56:42.790Z,64.60
2019-01-23T21:59:47.069Z,64.80
2019-01-23T22:02:51.659Z,65.10
2019-01-23T22:05:55.877Z,65.40
2019-01-23T22:09:00.037Z,65.10
2019-01-23T22:12:04.316Z,65.20
2019-01-23T22:15:11.915Z,65.10
2019-01-23T22:18:16.177Z,65.20
2019-01-23T22:21:20.393Z,65.30
2019-01-23T22:24:24.619Z,65.50
2019-01-23T22:27:28.828Z,65.30
2019-01-23T22:30:33.809Z,65.20
2019-01-23T22:33:38.461Z,65.30
2019-01-23T22:36:42.653Z,65.10
2019-01-23T22:39:46.837Z,65.10
2019-01-23T22:42:51.059Z,65.00
2019-01-23T22:45:55.243Z,65.00
2019-01-23T22:48:59.458Z,64.80
2019-01-23T22:52:03.641Z,65.60
2019-01-23T22:55:08.910Z,64.90
2019-01-23T22:58:13.851Z,64.80
2019-01-23T23:01:29.943Z,64.80
2019-01-23T23:04:34.128Z,64.90
2019-01-23T23:07:38.359Z,64.80
2019-01-23T23:10:42.582Z,64.80
2019-01-23T23:13:46.741Z,64.80
2019-01-23T23:16:50.882Z,64.80
2019-01-23T23:19:55.113Z,64.70
2019-01-23T23:22:59.244Z,65.40
2019-01-23T23:26:03.455Z,64.70
2019-01-23T23:29:07.801Z,64.90
2019-01-23T23:32:12.065Z,64.80
2019-01-23T23:35:16.264Z,64.80
2019-01-23T23:38:20.528Z,65.00
2019-01-23T23:41:24.770Z,64.80
2019-01-23T23:44:28.982Z,64.60
2019-01-23T23:47:33.077Z,64.50
2019-01-23T23:50:37.661Z,64.60
2019-01-23T23:53:41.829Z,64.60
2019-01-23T23:56:46.043Z,64.70
2019-01-23T23:59:50.215Z,64.80
